sensor_id;sensor_type;location;lat;lon;timestamp;pressure;altitude;pressure_sealevel;temperature;humidity
9249;BME280;4660;41.768;26.198;2022-10-18T00:02:13;102515.91;;;10.39;100.00
9249;BME280;4660;41.768;26.198;2022-10-18T00:04:38;102531.56;;;10.33;100.00
9249;BME280;4660;41.768;26.198;2022-10-18T00:07:04;102523.91;;;10.11;100.00
9249;BME280;4660;41.768;26.198;2022-10-18T00:09:30;102526.50;;;10.12;100.00
9249;BME280;4660;41.768;26.198;2022-10-18T00:11:56;102525.25;;;10.18;100.00
9249;BME280;4660;41.768;26.198;2022-10-18T00:14:22;102514.75;;;9.99;100.00
9249;BME280;4660;41.768;26.198;2022-10-18T00:16:47;102527.84;;;10.19;100.00
9249;BME280;4660;41.768;26.198;2022-10-18T00:19:13;102518.19;;;10.45;100.00
9249;BME280;4660;41.768;26.198;2022-10-18T00:21:38;102524.06;;;10.52;100.00
9249;BME280;4660;41.768;26.198;2022-10-18T00:24:04;102492.25;;;10.30;100.00
9249;BME280;4660;41.768;26.198;2022-10-18T00:26:30;102519.66;;;10.51;100.00
9249;BME280;4660;41.768;26.198;2022-10-18T00:29:00;102510.34;;;10.12;100.00
9249;BME280;4660;41.768;26.198;2022-10-18T00:33:56;102509.22;;;10.02;100.00
9249;BME280;4660;41.768;26.198;2022-10-18T00:36:23;102507.53;;;10.00;100.00
9249;BME280;4660;41.768;26.198;2022-10-18T00:38:49;102508.97;;;9.91;100.00
9249;BME280;4660;41.768;26.198;2022-10-18T00:41:17;102492.66;;;9.80;100.00
9249;BME280;4660;41.768;26.198;2022-10-18T00:46:46;102496.16;;;10.10;100.00
9249;BME280;4660;41.768;26.198;2022-10-18T00:49:20;102501.75;;;9.77;100.00
9249;BME280;4660;41.768;26.198;2022-10-18T00:51:50;102494.31;;;9.52;100.00
9249;BME280;4660;41.768;26.198;2022-10-18T00:54:18;102497.44;;;9.45;100.00
9249;BME280;4660;41.768;26.198;2022-10-18T00:56:44;102497.19;;;9.33;100.00
9249;BME280;4660;41.768;26.198;2022-10-18T00:59:13;102479.63;;;9.12;100.00
9249;BME280;4660;41.768;26.198;2022-10-18T01:01:39;102484.34;;;9.08;100.00
9249;BME280;4660;41.768;26.198;2022-10-18T01:04:04;102474.09;;;8.99;100.00
9249;BME280;4660;41.768;26.198;2022-10-18T01:06:31;102480.41;;;9.30;100.00
9249;BME280;4660;41.768;26.198;2022-10-18T01:11:53;102489.88;;;9.51;100.00
9249;BME280;4660;41.768;26.198;2022-10-18T01:14:29;102483.41;;;9.40;100.00
9249;BME280;4660;41.768;26.198;2022-10-18T01:22:37;102468.50;;;8.88;100.00
9249;BME280;4660;41.768;26.198;2022-10-18T01:27:43;102462.09;;;8.75;100.00
9249;BME280;4660;41.768;26.198;2022-10-18T01:33:01;102461.19;;;9.22;100.00
9249;BME280;4660;41.768;26.198;2022-10-18T01:35:33;102463.75;;;9.39;100.00
9249;BME280;4660;41.768;26.198;2022-10-18T01:38:03;102455.16;;;9.32;100.00
9249;BME280;4660;41.768;26.198;2022-10-18T01:40:31;102468.09;;;9.26;100.00
9249;BME280;4660;41.768;26.198;2022-10-18T01:42:58;102461.00;;;9.25;100.00
9249;BME280;4660;41.768;26.198;2022-10-18T01:45:25;102471.41;;;9.15;100.00
9249;BME280;4660;41.768;26.198;2022-10-18T01:47:53;102467.88;;;9.15;100.00
9249;BME280;4660;41.768;26.198;2022-10-18T01:50:28;102465.19;;;9.15;100.00
9249;BME280;4660;41.768;26.198;2022-10-18T01:52:55;102475.59;;;9.35;100.00
9249;BME280;4660;41.768;26.198;2022-10-18T01:55:25;102464.34;;;9.28;100.00
9249;BME280;4660;41.768;26.198;2022-10-18T02:00:32;102459.22;;;9.09;100.00
9249;BME280;4660;41.768;26.198;2022-10-18T02:03:15;102478.44;;;9.18;100.00
9249;BME280;4660;41.768;26.198;2022-10-18T02:08:41;102471.72;;;8.79;100.00
9249;BME280;4660;41.768;26.198;2022-10-18T02:11:13;102462.53;;;8.67;100.00
9249;BME280;4660;41.768;26.198;2022-10-18T02:13:47;102467.38;;;8.61;100.00
9249;BME280;4660;41.768;26.198;2022-10-18T02:16:40;102459.56;;;8.56;100.00
9249;BME280;4660;41.768;26.198;2022-10-18T02:19:11;102462.19;;;8.73;100.00
9249;BME280;4660;41.768;26.198;2022-10-18T02:21:40;102467.72;;;8.86;100.00
9249;BME280;4660;41.768;26.198;2022-10-18T02:24:07;102477.31;;;8.90;100.00
9249;BME280;4660;41.768;26.198;2022-10-18T02:26:34;102462.44;;;8.69;100.00
9249;BME280;4660;41.768;26.198;2022-10-18T02:29:00;102476.72;;;8.69;100.00
9249;BME280;4660;41.768;26.198;2022-10-18T02:31:47;102471.53;;;8.50;100.00
9249;BME280;4660;41.768;26.198;2022-10-18T02:34:31;102464.94;;;8.56;100.00
9249;BME280;4660;41.768;26.198;2022-10-18T02:37:00;102445.19;;;8.41;100.00
9249;BME280;4660;41.768;26.198;2022-10-18T02:39:29;102454.47;;;8.51;100.00
9249;BME280;4660;41.768;26.198;2022-10-18T02:41:56;102458.00;;;8.36;100.00
9249;BME280;4660;41.768;26.198;2022-10-18T02:44:22;102468.38;;;8.42;100.00
9249;BME280;4660;41.768;26.198;2022-10-18T02:46:48;102456.25;;;8.35;100.00
9249;BME280;4660;41.768;26.198;2022-10-18T02:49:14;102461.22;;;8.25;100.00
9249;BME280;4660;41.768;26.198;2022-10-18T02:51:39;102464.75;;;8.10;100.00
9249;BME280;4660;41.768;26.198;2022-10-18T02:54:05;102463.44;;;8.02;100.00
9249;BME280;4660;41.768;26.198;2022-10-18T02:56:30;102471.66;;;7.81;100.00
9249;BME280;4660;41.768;26.198;2022-10-18T02:58:56;102464.56;;;7.80;100.00
9249;BME280;4660;41.768;26.198;2022-10-18T03:01:22;102467.06;;;7.83;100.00
9249;BME280;4660;41.768;26.198;2022-10-18T03:03:48;102452.75;;;7.67;100.00
9249;BME280;4660;41.768;26.198;2022-10-18T03:06:13;102461.16;;;7.94;100.00
9249;BME280;4660;41.768;26.198;2022-10-18T03:08:39;102455.22;;;8.05;100.00
9249;BME280;4660;41.768;26.198;2022-10-18T03:11:05;102460.94;;;8.14;100.00
9249;BME280;4660;41.768;26.198;2022-10-18T03:13:30;102464.50;;;8.15;100.00
9249;BME280;4660;41.768;26.198;2022-10-18T03:15:56;102458.63;;;7.91;100.00
9249;BME280;4660;41.768;26.198;2022-10-18T03:18:22;102449.41;;;7.96;100.00
9249;BME280;4660;41.768;26.198;2022-10-18T03:20:47;102455.38;;;8.02;100.00
9249;BME280;4660;41.768;26.198;2022-10-18T03:23:13;102474.50;;;8.11;100.00
9249;BME280;4660;41.768;26.198;2022-10-18T03:25:38;102473.53;;;7.96;100.00
9249;BME280;4660;41.768;26.198;2022-10-18T03:28:04;102472.88;;;7.91;100.00
9249;BME280;4660;41.768;26.198;2022-10-18T03:30:29;102482.50;;;8.28;100.00
9249;BME280;4660;41.768;26.198;2022-10-18T03:32:55;102460.25;;;8.11;100.00
9249;BME280;4660;41.768;26.198;2022-10-18T03:35:20;102458.44;;;8.11;100.00
9249;BME280;4660;41.768;26.198;2022-10-18T03:37:46;102484.66;;;8.39;100.00
9249;BME280;4660;41.768;26.198;2022-10-18T03:40:12;102478.22;;;8.09;100.00
9249;BME280;4660;41.768;26.198;2022-10-18T03:42:37;102480.47;;;8.00;100.00
9249;BME280;4660;41.768;26.198;2022-10-18T03:45:03;102482.78;;;7.73;100.00
9249;BME280;4660;41.768;26.198;2022-10-18T03:47:29;102493.22;;;7.78;100.00
9249;BME280;4660;41.768;26.198;2022-10-18T03:49:55;102477.94;;;7.63;100.00
9249;BME280;4660;41.768;26.198;2022-10-18T03:52:20;102484.25;;;7.62;100.00
9249;BME280;4660;41.768;26.198;2022-10-18T03:54:46;102478.75;;;7.65;100.00
9249;BME280;4660;41.768;26.198;2022-10-18T03:57:11;102461.72;;;7.66;100.00
9249;BME280;4660;41.768;26.198;2022-10-18T03:59:37;102482.13;;;7.68;100.00
9249;BME280;4660;41.768;26.198;2022-10-18T04:02:04;102483.56;;;7.58;100.00
9249;BME280;4660;41.768;26.198;2022-10-18T04:04:30;102462.66;;;7.48;100.00
9249;BME280;4660;41.768;26.198;2022-10-18T04:07:17;102481.44;;;7.65;100.00
9249;BME280;4660;41.768;26.198;2022-10-18T04:12:18;102493.81;;;7.50;100.00
9249;BME280;4660;41.768;26.198;2022-10-18T04:15:07;102492.13;;;7.48;100.00
9249;BME280;4660;41.768;26.198;2022-10-18T04:20:27;102460.25;;;7.43;100.00
9249;BME280;4660;41.768;26.198;2022-10-18T04:22:58;102470.72;;;7.48;100.00
9249;BME280;4660;41.768;26.198;2022-10-18T04:28:23;102483.47;;;7.60;100.00
9249;BME280;4660;41.768;26.198;2022-10-18T04:30:51;102481.09;;;7.88;100.00
9249;BME280;4660;41.768;26.198;2022-10-18T04:33:18;102490.88;;;7.89;100.00
9249;BME280;4660;41.768;26.198;2022-10-18T04:36:13;102483.16;;;7.83;100.00
9249;BME280;4660;41.768;26.198;2022-10-18T04:38:39;102477.91;;;7.64;100.00
9249;BME280;4660;41.768;26.198;2022-10-18T04:41:06;102488.03;;;7.75;100.00
9249;BME280;4660;41.768;26.198;2022-10-18T04:43:35;102436.50;;;7.35;100.00
9249;BME280;4660;41.768;26.198;2022-10-18T04:48:36;102481.72;;;7.76;100.00
9249;BME280;4660;41.768;26.198;2022-10-18T04:51:19;102499.94;;;7.87;100.00
9249;BME280;4660;41.768;26.198;2022-10-18T04:53:47;102503.31;;;8.08;100.00
9249;BME280;4660;41.768;26.198;2022-10-18T04:56:39;102506.19;;;8.38;100.00
9249;BME280;4660;41.768;26.198;2022-10-18T04:59:51;102424.78;;;8.06;100.00
9249;BME280;4660;41.768;26.198;2022-10-18T05:02:40;102494.13;;;8.29;100.00
9249;BME280;4660;41.768;26.198;2022-10-18T05:05:23;102465.94;;;8.05;100.00
9249;BME280;4660;41.768;26.198;2022-10-18T05:07:52;102400.66;;;7.55;100.00
9249;BME280;4660;41.768;26.198;2022-10-18T05:10:20;102493.69;;;8.04;100.00
9249;BME280;4660;41.768;26.198;2022-10-18T05:12:49;102487.38;;;8.05;100.00
9249;BME280;4660;41.768;26.198;2022-10-18T05:25:40;102421.38;;;7.86;100.00
9249;BME280;4660;41.768;26.198;2022-10-18T05:28:13;102506.72;;;8.44;100.00
9249;BME280;4660;41.768;26.198;2022-10-18T05:30:50;102419.72;;;7.99;100.00
9249;BME280;4660;41.768;26.198;2022-10-18T05:33:23;102429.91;;;7.93;100.00
9249;BME280;4660;41.768;26.198;2022-10-18T05:36:14;102476.09;;;8.15;100.00
9249;BME280;4660;41.768;26.198;2022-10-18T05:38:42;102448.94;;;8.21;100.00
9249;BME280;4660;41.768;26.198;2022-10-18T05:43:49;102529.00;;;8.78;100.00
9249;BME280;4660;41.768;26.198;2022-10-18T05:51:30;102503.00;;;8.63;100.00
9249;BME280;4660;41.768;26.198;2022-10-18T06:08:17;102510.41;;;9.52;100.00
9249;BME280;4660;41.768;26.198;2022-10-18T06:10:55;102417.66;;;8.85;100.00
9249;BME280;4660;41.768;26.198;2022-10-18T06:21:02;102458.31;;;9.25;100.00
9249;BME280;4660;41.768;26.198;2022-10-18T06:23:34;102394.00;;;9.07;100.00
9249;BME280;4660;41.768;26.198;2022-10-18T06:26:36;102500.91;;;9.91;100.00
9249;BME280;4660;41.768;26.198;2022-10-18T06:29:12;102507.13;;;10.07;100.00
9249;BME280;4660;41.768;26.198;2022-10-18T06:31:54;102431.94;;;9.61;100.00
9249;BME280;4660;41.768;26.198;2022-10-18T06:34:20;102443.97;;;9.84;100.00
9249;BME280;4660;41.768;26.198;2022-10-18T06:37:09;102456.56;;;10.12;100.00
9249;BME280;4660;41.768;26.198;2022-10-18T06:39:41;102503.19;;;10.56;100.00
9249;BME280;4660;41.768;26.198;2022-10-18T06:42:08;102446.88;;;10.53;100.00
9249;BME280;4660;41.768;26.198;2022-10-18T06:44:37;102503.59;;;11.05;100.00
9249;BME280;4660;41.768;26.198;2022-10-18T06:54:54;102442.69;;;11.29;100.00
9249;BME280;4660;41.768;26.198;2022-10-18T06:57:41;102436.88;;;10.96;100.00
9249;BME280;4660;41.768;26.198;2022-10-18T07:00:32;102483.34;;;11.39;100.00
9249;BME280;4660;41.768;26.198;2022-10-18T07:03:13;102373.00;;;10.71;100.00
9249;BME280;4660;41.768;26.198;2022-10-18T07:06:04;102429.41;;;11.26;100.00
9249;BME280;4660;41.768;26.198;2022-10-18T07:08:48;102415.91;;;11.66;100.00
9249;BME280;4660;41.768;26.198;2022-10-18T07:11:21;102489.72;;;12.42;100.00
9249;BME280;4660;41.768;26.198;2022-10-18T07:14:36;102476.50;;;12.75;100.00
9249;BME280;4660;41.768;26.198;2022-10-18T07:17:25;102472.59;;;12.79;100.00
9249;BME280;4660;41.768;26.198;2022-10-18T07:20:08;102426.47;;;12.46;100.00
9249;BME280;4660;41.768;26.198;2022-10-18T07:22:39;102406.25;;;12.02;100.00
9249;BME280;4660;41.768;26.198;2022-10-18T07:30:34;102434.84;;;12.54;100.00
9249;BME280;4660;41.768;26.198;2022-10-18T07:33:33;102453.34;;;12.84;100.00
9249;BME280;4660;41.768;26.198;2022-10-18T07:36:28;102400.16;;;12.84;100.00
9249;BME280;4660;41.768;26.198;2022-10-18T07:46:49;102358.56;;;13.46;100.00
9249;BME280;4660;41.768;26.198;2022-10-18T07:49:53;102329.09;;;13.65;100.00
9249;BME280;4660;41.768;26.198;2022-10-18T07:52:51;102374.22;;;14.10;100.00
9249;BME280;4660;41.768;26.198;2022-10-18T09:46:04;102240.28;;;19.17;84.90
9249;BME280;4660;41.768;26.198;2022-10-18T09:49:21;102219.75;;;19.05;84.63
9249;BME280;4660;41.768;26.198;2022-10-18T09:54:42;102139.34;;;18.65;83.15
9249;BME280;4660;41.768;26.198;2022-10-18T09:58:03;102170.34;;;19.08;82.74
9249;BME280;4660;41.768;26.198;2022-10-18T10:11:27;102209.84;;;19.64;80.97
9249;BME280;4660;41.768;26.198;2022-10-18T10:28:02;102094.53;;;19.36;73.87
9249;BME280;4660;41.768;26.198;2022-10-18T12:39:23;101960.66;;;21.45;60.04
9249;BME280;4660;41.768;26.198;2022-10-18T12:45:31;101913.34;;;21.28;64.81
9249;BME280;4660;41.768;26.198;2022-10-18T12:48:43;101892.34;;;21.20;58.12
9249;BME280;4660;41.768;26.198;2022-10-18T12:56:32;101946.19;;;21.74;58.08
9249;BME280;4660;41.768;26.198;2022-10-18T13:13:23;101928.78;;;21.66;58.24
9249;BME280;4660;41.768;26.198;2022-10-18T13:23:58;101918.50;;;21.68;59.28
9249;BME280;4660;41.768;26.198;2022-10-18T13:27:16;101905.41;;;21.56;60.11
9249;BME280;4660;41.768;26.198;2022-10-18T13:36:29;101798.91;;;21.00;59.05
9249;BME280;4660;41.768;26.198;2022-10-18T13:39:14;101834.81;;;21.28;60.07
9249;BME280;4660;41.768;26.198;2022-10-18T13:44:35;101794.78;;;21.04;61.48
9249;BME280;4660;41.768;26.198;2022-10-18T13:47:14;101894.38;;;21.64;60.44
9249;BME280;4660;41.768;26.198;2022-10-18T13:56:17;101781.53;;;20.93;60.97
9249;BME280;4660;41.768;26.198;2022-10-18T14:01:39;101850.25;;;21.44;61.45
9249;BME280;4660;41.768;26.198;2022-10-18T14:07:04;101803.53;;;21.00;62.28
9249;BME280;4660;41.768;26.198;2022-10-18T14:09:52;101781.72;;;20.92;62.83
9249;BME280;4660;41.768;26.198;2022-10-18T14:12:37;101819.00;;;21.15;62.62
9249;BME280;4660;41.768;26.198;2022-10-18T14:15:16;101824.72;;;21.06;62.82
9249;BME280;4660;41.768;26.198;2022-10-18T14:18:11;101783.88;;;20.58;63.70
9249;BME280;4660;41.768;26.198;2022-10-18T14:21:31;101866.06;;;20.88;64.46
9249;BME280;4660;41.768;26.198;2022-10-18T14:24:13;101812.91;;;20.59;64.76
9249;BME280;4660;41.768;26.198;2022-10-18T14:26:45;101866.31;;;21.01;64.28
9249;BME280;4660;41.768;26.198;2022-10-18T14:35:27;101859.47;;;20.74;65.23
9249;BME280;4660;41.768;26.198;2022-10-18T14:38:35;101808.56;;;20.34;65.68
9249;BME280;4660;41.768;26.198;2022-10-18T14:46:32;101849.63;;;20.65;66.22
9249;BME280;4660;41.768;26.198;2022-10-18T14:49:19;101841.03;;;20.37;66.80
9249;BME280;4660;41.768;26.198;2022-10-18T14:52:11;101820.22;;;20.28;66.82
9249;BME280;4660;41.768;26.198;2022-10-18T15:00:07;101757.19;;;19.90;68.36
9249;BME280;4660;41.768;26.198;2022-10-18T15:02:38;101856.19;;;20.48;69.32
9249;BME280;4660;41.768;26.198;2022-10-18T15:05:57;101840.34;;;20.35;70.99
9249;BME280;4660;41.768;26.198;2022-10-18T15:09:00;101825.97;;;20.02;72.09
9249;BME280;4660;41.768;26.198;2022-10-18T15:14:15;101787.47;;;19.56;74.40
9249;BME280;4660;41.768;26.198;2022-10-18T15:16:55;101795.19;;;19.44;75.76
9249;BME280;4660;41.768;26.198;2022-10-18T15:20:01;101777.50;;;19.08;77.30
9249;BME280;4660;41.768;26.198;2022-10-18T15:23:25;101835.09;;;19.21;79.10
9249;BME280;4660;41.768;26.198;2022-10-18T15:26:18;101816.31;;;18.85;79.99
9249;BME280;4660;41.768;26.198;2022-10-18T15:28:57;101814.97;;;18.73;80.87
9249;BME280;4660;41.768;26.198;2022-10-18T15:31:48;101785.03;;;18.31;82.25
9249;BME280;4660;41.768;26.198;2022-10-18T15:34:26;101772.25;;;18.23;82.94
9249;BME280;4660;41.768;26.198;2022-10-18T15:37:17;101734.19;;;17.97;84.07
9249;BME280;4660;41.768;26.198;2022-10-18T15:40:34;101789.25;;;18.25;84.99
9249;BME280;4660;41.768;26.198;2022-10-18T15:43:31;101833.09;;;18.48;85.63
9249;BME280;4660;41.768;26.198;2022-10-18T15:46:04;101837.69;;;18.48;86.19
9249;BME280;4660;41.768;26.198;2022-10-18T15:49:53;101802.19;;;18.15;87.47
9249;BME280;4660;41.768;26.198;2022-10-18T16:00:59;101788.25;;;17.58;92.96
9249;BME280;4660;41.768;26.198;2022-10-18T16:03:46;101803.91;;;17.64;94.38
9249;BME280;4660;41.768;26.198;2022-10-18T16:09:39;101789.25;;;17.31;96.73
9249;BME280;4660;41.768;26.198;2022-10-18T16:12:32;101844.47;;;17.49;97.77
9249;BME280;4660;41.768;26.198;2022-10-18T16:17:52;101849.59;;;17.52;99.03
9249;BME280;4660;41.768;26.198;2022-10-18T16:20:21;101841.69;;;17.41;99.34
9249;BME280;4660;41.768;26.198;2022-10-18T16:22:56;101852.50;;;17.51;99.64
9249;BME280;4660;41.768;26.198;2022-10-18T16:26:11;101854.94;;;17.62;99.25
9249;BME280;4660;41.768;26.198;2022-10-18T16:28:55;101824.69;;;17.39;99.36
9249;BME280;4660;41.768;26.198;2022-10-18T16:31:28;101830.81;;;17.41;99.57
9249;BME280;4660;41.768;26.198;2022-10-18T16:34:18;101753.34;;;16.84;100.00
9249;BME280;4660;41.768;26.198;2022-10-18T16:36:46;101832.84;;;17.21;100.00
9249;BME280;4660;41.768;26.198;2022-10-18T16:39:18;101766.41;;;16.80;100.00
9249;BME280;4660;41.768;26.198;2022-10-18T16:41:57;101834.88;;;17.19;100.00
9249;BME280;4660;41.768;26.198;2022-10-18T16:44:29;101769.44;;;16.77;100.00
9249;BME280;4660;41.768;26.198;2022-10-18T16:46:55;101800.13;;;16.87;100.00
9249;BME280;4660;41.768;26.198;2022-10-18T16:49:28;101836.00;;;17.09;100.00
9249;BME280;4660;41.768;26.198;2022-10-18T16:52:08;101757.75;;;16.49;100.00
9249;BME280;4660;41.768;26.198;2022-10-18T16:55:06;101864.56;;;17.13;100.00
9249;BME280;4660;41.768;26.198;2022-10-18T16:57:50;101822.31;;;16.83;100.00
9249;BME280;4660;41.768;26.198;2022-10-18T17:00:22;101867.44;;;17.11;100.00
9249;BME280;4660;41.768;26.198;2022-10-18T17:03:26;101858.66;;;16.99;100.00
9249;BME280;4660;41.768;26.198;2022-10-18T17:06:31;101858.13;;;16.96;100.00
9249;BME280;4660;41.768;26.198;2022-10-18T17:09:01;101796.19;;;16.54;100.00
9249;BME280;4660;41.768;26.198;2022-10-18T17:11:32;101760.31;;;16.33;100.00
9249;BME280;4660;41.768;26.198;2022-10-18T17:14:05;101814.66;;;16.68;100.00
9249;BME280;4660;41.768;26.198;2022-10-18T17:16:35;101863.88;;;16.75;100.00
9249;BME280;4660;41.768;26.198;2022-10-18T17:19:35;101831.50;;;16.54;100.00
9249;BME280;4660;41.768;26.198;2022-10-18T17:22:02;101828.03;;;16.34;100.00
9249;BME280;4660;41.768;26.198;2022-10-18T17:24:30;101775.69;;;16.14;100.00
9249;BME280;4660;41.768;26.198;2022-10-18T17:26:57;101748.06;;;15.74;100.00
9249;BME280;4660;41.768;26.198;2022-10-18T17:29:45;101758.78;;;15.75;100.00
9249;BME280;4660;41.768;26.198;2022-10-18T17:35:11;101786.84;;;15.84;100.00
9249;BME280;4660;41.768;26.198;2022-10-18T17:38:00;101852.19;;;16.37;100.00
9249;BME280;4660;41.768;26.198;2022-10-18T17:40:31;101825.41;;;16.24;100.00
9249;BME280;4660;41.768;26.198;2022-10-18T17:43:00;101784.97;;;15.94;100.00
9249;BME280;4660;41.768;26.198;2022-10-18T17:45:26;101776.69;;;15.86;100.00
9249;BME280;4660;41.768;26.198;2022-10-18T17:47:56;101832.00;;;16.22;100.00
9249;BME280;4660;41.768;26.198;2022-10-18T17:50:23;101760.31;;;15.78;100.00
9249;BME280;4660;41.768;26.198;2022-10-18T17:52:52;101762.69;;;15.90;100.00
9249;BME280;4660;41.768;26.198;2022-10-18T17:55:18;101758.69;;;15.94;100.00
9249;BME280;4660;41.768;26.198;2022-10-18T17:57:44;101793.66;;;16.25;100.00
9249;BME280;4660;41.768;26.198;2022-10-18T18:00:12;101807.69;;;16.20;100.00
9249;BME280;4660;41.768;26.198;2022-10-18T18:02:40;101853.31;;;16.44;100.00
9249;BME280;4660;41.768;26.198;2022-10-18T18:05:11;101852.06;;;16.57;100.00
9249;BME280;4660;41.768;26.198;2022-10-18T18:07:38;101743.00;;;15.88;100.00
9249;BME280;4660;41.768;26.198;2022-10-18T18:10:10;101829.06;;;16.33;100.00
9249;BME280;4660;41.768;26.198;2022-10-18T18:12:50;101776.00;;;16.11;100.00
9249;BME280;4660;41.768;26.198;2022-10-18T18:15:20;101783.81;;;15.96;100.00
9249;BME280;4660;41.768;26.198;2022-10-18T18:17:46;101815.81;;;15.93;100.00
9249;BME280;4660;41.768;26.198;2022-10-18T18:20:15;101832.47;;;15.71;100.00
9249;BME280;4660;41.768;26.198;2022-10-18T18:22:50;101779.75;;;15.17;100.00
9249;BME280;4660;41.768;26.198;2022-10-18T18:25:18;101847.53;;;15.36;100.00
9249;BME280;4660;41.768;26.198;2022-10-18T18:27:48;101810.72;;;15.04;100.00
9249;BME280;4660;41.768;26.198;2022-10-18T18:30:20;101808.59;;;14.98;100.00
9249;BME280;4660;41.768;26.198;2022-10-18T18:32:49;101731.75;;;14.61;100.00
9249;BME280;4660;41.768;26.198;2022-10-18T18:35:25;101836.22;;;15.40;100.00
9249;BME280;4660;41.768;26.198;2022-10-18T18:38:10;101815.69;;;15.38;100.00
9249;BME280;4660;41.768;26.198;2022-10-18T18:41:16;101767.75;;;15.19;100.00
9249;BME280;4660;41.768;26.198;2022-10-18T18:43:55;101801.53;;;15.34;100.00
9249;BME280;4660;41.768;26.198;2022-10-18T18:46:27;101834.94;;;15.45;100.00
9249;BME280;4660;41.768;26.198;2022-10-18T18:49:14;101786.31;;;15.24;100.00
9249;BME280;4660;41.768;26.198;2022-10-18T18:51:42;101790.16;;;15.31;100.00
9249;BME280;4660;41.768;26.198;2022-10-18T18:54:14;101790.16;;;15.31;100.00
9249;BME280;4660;41.768;26.198;2022-10-18T18:56:49;101744.41;;;15.08;100.00
9249;BME280;4660;41.768;26.198;2022-10-18T18:59:19;101832.22;;;15.35;100.00
9249;BME280;4660;41.768;26.198;2022-10-18T19:01:50;101737.88;;;14.53;100.00
9249;BME280;4660;41.768;26.198;2022-10-18T19:04:17;101763.47;;;14.39;100.00
9249;BME280;4660;41.768;26.198;2022-10-18T19:06:48;101782.47;;;14.49;100.00
9249;BME280;4660;41.768;26.198;2022-10-18T19:09:36;101811.44;;;14.68;100.00
9249;BME280;4660;41.768;26.198;2022-10-18T19:12:04;101765.75;;;14.34;100.00
9249;BME280;4660;41.768;26.198;2022-10-18T19:14:32;101756.06;;;14.22;100.00
9249;BME280;4660;41.768;26.198;2022-10-18T19:16:59;101824.25;;;14.56;100.00
9249;BME280;4660;41.768;26.198;2022-10-18T19:19:45;101811.13;;;14.71;100.00
9249;BME280;4660;41.768;26.198;2022-10-18T19:22:12;101707.13;;;13.94;100.00
9249;BME280;4660;41.768;26.198;2022-10-18T19:24:58;101688.03;;;13.86;100.00
9249;BME280;4660;41.768;26.198;2022-10-18T19:27:44;101723.28;;;13.65;100.00
9249;BME280;4660;41.768;26.198;2022-10-18T19:30:12;101706.00;;;13.57;100.00
9249;BME280;4660;41.768;26.198;2022-10-18T19:32:53;101781.34;;;14.01;100.00
9249;BME280;4660;41.768;26.198;2022-10-18T19:35:23;101786.78;;;14.11;100.00
9249;BME280;4660;41.768;26.198;2022-10-18T19:37:50;101772.41;;;14.11;100.00
9249;BME280;4660;41.768;26.198;2022-10-18T19:40:24;101688.59;;;13.40;100.00
9249;BME280;4660;41.768;26.198;2022-10-18T19:43:00;101804.09;;;13.99;100.00
9249;BME280;4660;41.768;26.198;2022-10-18T19:45:32;101794.81;;;13.92;100.00
9249;BME280;4660;41.768;26.198;2022-10-18T19:48:11;101775.63;;;13.64;100.00
9249;BME280;4660;41.768;26.198;2022-10-18T19:50:46;101793.38;;;13.57;100.00
9249;BME280;4660;41.768;26.198;2022-10-18T19:53:20;101787.72;;;13.60;100.00
9249;BME280;4660;41.768;26.198;2022-10-18T19:55:48;101789.03;;;13.66;100.00
9249;BME280;4660;41.768;26.198;2022-10-18T19:58:51;101756.94;;;13.52;100.00
9249;BME280;4660;41.768;26.198;2022-10-18T20:01:40;101790.69;;;13.57;100.00
9249;BME280;4660;41.768;26.198;2022-10-18T20:04:31;101729.59;;;12.82;100.00
9249;BME280;4660;41.768;26.198;2022-10-18T20:07:20;101742.78;;;12.97;100.00
9249;BME280;4660;41.768;26.198;2022-10-18T20:09:47;101721.44;;;12.40;100.00
9249;BME280;4660;41.768;26.198;2022-10-18T20:12:15;101690.19;;;12.38;100.00
9249;BME280;4660;41.768;26.198;2022-10-18T20:14:53;101776.16;;;12.75;100.00
9249;BME280;4660;41.768;26.198;2022-10-18T20:18:02;101653.16;;;12.08;100.00
9249;BME280;4660;41.768;26.198;2022-10-18T20:20:33;101727.44;;;12.76;100.00
9249;BME280;4660;41.768;26.198;2022-10-18T20:23:05;101734.19;;;12.71;100.00
9249;BME280;4660;41.768;26.198;2022-10-18T20:25:33;101695.53;;;12.49;100.00
9249;BME280;4660;41.768;26.198;2022-10-18T20:28:00;101658.28;;;12.11;100.00
9249;BME280;4660;41.768;26.198;2022-10-18T20:30:26;101716.31;;;12.37;100.00
9249;BME280;4660;41.768;26.198;2022-10-18T20:32:55;101729.94;;;12.36;100.00
9249;BME280;4660;41.768;26.198;2022-10-18T20:35:29;101759.84;;;12.44;100.00
9249;BME280;4660;41.768;26.198;2022-10-18T20:37:55;101743.63;;;12.12;100.00
9249;BME280;4660;41.768;26.198;2022-10-18T20:40:25;101739.69;;;12.16;100.00
9249;BME280;4660;41.768;26.198;2022-10-18T20:42:51;101754.84;;;12.28;100.00
9249;BME280;4660;41.768;26.198;2022-10-18T20:45:17;101695.25;;;11.88;100.00
9249;BME280;4660;41.768;26.198;2022-10-18T20:47:43;101742.63;;;12.13;100.00
9249;BME280;4660;41.768;26.198;2022-10-18T20:50:09;101699.53;;;11.79;100.00
9249;BME280;4660;41.768;26.198;2022-10-18T20:52:35;101698.81;;;11.89;100.00
9249;BME280;4660;41.768;26.198;2022-10-18T20:55:02;101668.41;;;11.64;100.00
9249;BME280;4660;41.768;26.198;2022-10-18T20:57:29;101728.44;;;12.00;100.00
9249;BME280;4660;41.768;26.198;2022-10-18T20:59:57;101656.91;;;11.28;100.00
9249;BME280;4660;41.768;26.198;2022-10-18T21:02:24;101729.06;;;11.70;100.00
9249;BME280;4660;41.768;26.198;2022-10-18T21:04:49;101615.41;;;10.75;100.00
9249;BME280;4660;41.768;26.198;2022-10-18T21:07:15;101729.31;;;11.44;100.00
9249;BME280;4660;41.768;26.198;2022-10-18T21:09:40;101718.53;;;11.22;100.00
9249;BME280;4660;41.768;26.198;2022-10-18T21:12:06;101711.75;;;11.05;100.00
9249;BME280;4660;41.768;26.198;2022-10-18T21:14:32;101701.25;;;11.13;100.00